createdAt,value
2019-02-17T00:01:22.926Z,66.08
2019-02-17T00:03:53.346Z,65.96
2019-02-17T00:06:24.039Z,66.77
2019-02-17T00:08:54.709Z,66.94
2019-02-17T00:11:25.223Z,67.10
2019-02-17T00:13:55.491Z,68.05
2019-02-17T00:16:25.849Z,68.09
2019-02-17T00:18:56.495Z,67.04
2019-02-17T00:21:26.853Z,67.75
2019-02-17T00:23:57.117Z,67.15
2019-02-17T00:26:27.496Z,66.36
2019-02-17T00:28:59.819Z,66.29
2019-02-17T00:31:30.164Z,66.84
2019-02-17T00:34:00.735Z,66.47
2019-02-17T00:36:31.321Z,67.79
2019-02-17T00:39:01.782Z,67.22
2019-02-17T00:41:33.717Z,66.84
2019-02-17T00:44:04.042Z,66.71
2019-02-17T00:46:34.787Z,67.22
2019-02-17T00:49:05.396Z,67.13
2019-02-17T00:51:35.699Z,67.13
2019-02-17T00:54:06.120Z,66.90
2019-02-17T00:56:36.802Z,66.84
2019-02-17T00:59:10.189Z,67.04
2019-02-17T01:01:39.242Z,67.04
2019-02-17T01:04:10.037Z,66.60
2019-02-17T01:06:40.319Z,67.29
2019-02-17T01:09:10.660Z,66.95
2019-02-17T01:11:41.245Z,67.09
2019-02-17T01:14:12.935Z,67.02
2019-02-17T01:16:43.612Z,67.10
2019-02-17T01:19:13.924Z,67.58
2019-02-17T01:21:44.382Z,66.92
2019-02-17T01:24:14.930Z,67.32
2019-02-17T01:26:45.245Z,67.50
2019-02-17T01:29:20.318Z,66.34
2019-02-17T01:31:47.942Z,67.04
2019-02-17T01:34:18.211Z,66.79
2019-02-17T01:36:48.490Z,66.20
2019-02-17T01:39:19.022Z,66.54
2019-02-17T01:41:49.473Z,66.34
2019-02-17T01:44:19.799Z,66.56
2019-02-17T01:46:50.367Z,66.98
2019-02-17T01:49:20.671Z,67.41
2019-02-17T01:51:51.355Z,66.92
2019-02-17T01:54:21.623Z,67.58
2019-02-17T01:56:51.945Z,67.37
2019-02-17T01:59:30.376Z,66.71
2019-02-17T02:01:55.059Z,67.06
2019-02-17T02:04:25.387Z,66.08
2019-02-17T02:06:56.144Z,66.69
2019-02-17T02:09:27.990Z,66.72
2019-02-17T02:11:58.289Z,66.92
2019-02-17T02:14:28.987Z,67.24
2019-02-17T02:16:59.593Z,67.37
2019-02-17T02:19:29.911Z,67.16
2019-02-17T02:22:00.224Z,67.42
2019-02-17T02:24:30.548Z,68.55
2019-02-17T02:27:01.205Z,68.35
2019-02-17T02:29:40.818Z,68.24
2019-02-17T02:32:04.212Z,68.00
2019-02-17T02:34:34.580Z,67.40
2019-02-17T02:37:05.408Z,67.38
2019-02-17T02:39:35.734Z,67.72
2019-02-17T02:42:06.215Z,68.10
2019-02-17T02:44:37.910Z,67.92
2019-02-17T02:47:08.286Z,68.05
2019-02-17T02:49:38.783Z,68.02
2019-02-17T02:52:10.340Z,68.54
2019-02-17T02:54:41.053Z,68.47
2019-02-17T02:57:11.647Z,68.22
2019-02-17T02:59:52.105Z,68.86
2019-02-17T03:02:14.200Z,68.83
2019-02-17T03:04:44.814Z,69.36
2019-02-17T03:07:18.015Z,69.17
2019-02-17T03:09:48.360Z,69.69
2019-02-17T03:12:19.031Z,69.90
2019-02-17T03:14:49.357Z,70.02
2019-02-17T03:17:20.695Z,69.62
2019-02-17T03:19:51.285Z,69.95
2019-02-17T03:22:21.614Z,69.38
2019-02-17T03:24:52.280Z,69.65
2019-02-17T03:27:23.277Z,69.89
2019-02-17T03:30:04.475Z,70.23
2019-02-17T03:32:25.972Z,70.52
2019-02-17T03:34:56.291Z,70.71
2019-02-17T03:37:26.669Z,70.98
2019-02-17T03:39:57.265Z,71.24
2019-02-17T03:42:27.877Z,71.14
2019-02-17T03:44:58.309Z,70.99
2019-02-17T03:47:28.948Z,70.76
2019-02-17T03:49:59.315Z,70.92
2019-02-17T03:52:29.621Z,71.04
2019-02-17T03:55:00.409Z,70.76
2019-02-17T03:57:31.181Z,71.97
2019-02-17T04:00:01.459Z,71.95
2019-02-17T04:02:32.048Z,71.73
2019-02-17T04:05:02.616Z,71.36
2019-02-17T04:07:33.944Z,71.68
2019-02-17T04:10:04.298Z,71.60
2019-02-17T04:12:34.961Z,71.34
2019-02-17T04:15:05.877Z,71.87
2019-02-17T04:17:36.159Z,71.82
2019-02-17T04:20:06.683Z,72.00
2019-02-17T04:22:37.243Z,71.69
2019-02-17T04:25:08.635Z,72.15
2019-02-17T04:27:39.271Z,71.55
2019-02-17T04:30:09.724Z,72.79
2019-02-17T04:32:40.544Z,72.28
2019-02-17T04:35:10.859Z,72.24
2019-02-17T04:37:41.180Z,72.06
2019-02-17T04:40:11.680Z,72.51
2019-02-17T04:42:42.190Z,72.13
2019-02-17T04:45:12.468Z,72.12
2019-02-17T04:47:43.105Z,71.86
2019-02-17T04:50:13.464Z,74.44
2019-02-17T04:52:43.777Z,74.84
2019-02-17T04:55:14.550Z,75.69
2019-02-17T04:57:45.232Z,75.13
2019-02-17T05:00:15.513Z,74.58
2019-02-17T05:02:45.992Z,74.11
2019-02-17T05:05:16.307Z,74.71
2019-02-17T05:07:46.992Z,74.85
2019-02-17T05:10:17.660Z,75.15
2019-02-17T05:12:47.970Z,76.44
2019-02-17T05:15:18.589Z,77.65
2019-02-17T05:17:48.998Z,77.87
2019-02-17T05:20:19.286Z,78.37
2019-02-17T05:22:49.756Z,77.32
2019-02-17T05:25:20.532Z,77.32
2019-02-17T05:27:50.912Z,78.77
2019-02-17T05:30:21.222Z,78.38
2019-02-17T05:32:51.726Z,79.41
2019-02-17T05:35:22.463Z,80.03
2019-02-17T05:37:52.842Z,79.41
2019-02-17T05:40:23.217Z,79.90
2019-02-17T05:42:53.631Z,79.17
2019-02-17T05:45:24.274Z,78.50
2019-02-17T05:47:54.542Z,79.01
2019-02-17T05:50:24.917Z,79.39
2019-02-17T05:52:55.618Z,78.53
2019-02-17T05:55:25.937Z,78.15
2019-02-17T05:57:56.218Z,78.14
2019-02-17T06:00:30.392Z,78.92
2019-02-17T06:03:00.851Z,78.96
2019-02-17T06:05:31.236Z,78.52
2019-02-17T06:08:01.859Z,77.90
2019-02-17T06:10:32.451Z,77.19
2019-02-17T06:13:02.837Z,76.83
2019-02-17T06:15:33.196Z,76.64
2019-02-17T06:18:03.619Z,76.21
2019-02-17T06:20:33.881Z,76.06
2019-02-17T06:23:04.422Z,75.95
2019-02-17T06:25:35.114Z,74.51
2019-02-17T06:28:05.534Z,73.19
2019-02-17T06:30:35.856Z,74.04
2019-02-17T06:33:06.493Z,73.67
2019-02-17T06:35:36.826Z,72.17
2019-02-17T06:38:07.386Z,72.62
2019-02-17T06:40:37.753Z,72.06
2019-02-17T06:43:08.265Z,72.14
2019-02-17T06:45:38.845Z,72.02
2019-02-17T06:48:09.265Z,71.63
2019-02-17T06:50:39.632Z,71.69
2019-02-17T06:53:10.291Z,71.62
2019-02-17T06:55:54.684Z,71.45
2019-02-17T06:58:24.993Z,71.10
2019-02-17T07:00:57.830Z,70.35
2019-02-17T07:03:28.383Z,68.93
2019-02-17T07:06:09.574Z,68.64
2019-02-17T07:08:40.141Z,68.37
2019-02-17T07:11:10.511Z,69.07
2019-02-17T07:13:41.382Z,69.09
2019-02-17T07:16:11.675Z,68.81
2019-02-17T07:18:42.914Z,69.06
2019-02-17T07:21:13.690Z,68.21
2019-02-17T07:23:44.024Z,68.17
2019-02-17T07:26:14.461Z,67.96
2019-02-17T07:28:46.221Z,67.40
2019-02-17T07:31:16.670Z,67.20
2019-02-17T07:33:47.070Z,68.23
2019-02-17T07:36:17.646Z,68.11
2019-02-17T07:38:48.334Z,67.01
2019-02-17T07:41:18.676Z,66.86
2019-02-17T07:43:48.982Z,67.30
2019-02-17T07:46:19.269Z,67.81
2019-02-17T07:48:50.040Z,67.94
2019-02-17T07:51:20.582Z,67.93
2019-02-17T07:53:50.913Z,67.54
2019-02-17T07:56:21.590Z,68.08
2019-02-17T07:58:52.397Z,68.07
2019-02-17T08:01:22.689Z,67.08
2019-02-17T08:03:53.543Z,67.12
2019-02-17T08:06:24.312Z,67.04
2019-02-17T08:08:54.603Z,67.18
2019-02-17T08:11:25.017Z,66.36
2019-02-17T08:13:55.752Z,66.95
2019-02-17T08:16:27.003Z,66.66
2019-02-17T08:18:57.333Z,65.83
2019-02-17T08:21:28.127Z,65.89
2019-02-17T08:23:58.554Z,66.73
2019-02-17T08:26:28.845Z,66.05
2019-02-17T08:28:59.646Z,65.36
2019-02-17T08:31:30.005Z,65.58
2019-02-17T08:34:00.352Z,65.07
2019-02-17T08:36:30.980Z,64.32
2019-02-17T08:39:01.710Z,64.32
2019-02-17T08:41:31.989Z,63.73
2019-02-17T08:44:02.620Z,64.65
2019-02-17T08:46:33.027Z,65.13
2019-02-17T08:49:03.731Z,64.02
2019-02-17T08:51:34.256Z,63.84
2019-02-17T08:54:04.604Z,63.99
2019-02-17T08:56:35.010Z,63.24
2019-02-17T08:59:05.390Z,63.49
2019-02-17T09:01:35.703Z,62.70
2019-02-17T09:04:06.086Z,61.83
2019-02-17T09:06:36.815Z,61.56
2019-02-17T09:09:07.354Z,61.47
2019-02-17T09:11:37.894Z,61.62
2019-02-17T09:14:08.551Z,60.34
2019-02-17T09:16:38.856Z,60.19
2019-02-17T09:19:09.460Z,59.92
2019-02-17T09:21:39.770Z,59.91
2019-02-17T09:24:10.530Z,59.75
2019-02-17T09:26:40.934Z,60.24
2019-02-17T09:29:11.200Z,58.62
2019-02-17T09:31:41.551Z,58.84
2019-02-17T09:34:12.203Z,59.70
2019-02-17T09:36:42.577Z,58.11
2019-02-17T09:39:12.862Z,57.08
2019-02-17T09:41:43.582Z,56.61
2019-02-17T09:44:15.475Z,56.20
2019-02-17T09:46:45.771Z,54.78
2019-02-17T09:49:16.450Z,55.07
2019-02-17T09:51:46.961Z,53.00
2019-02-17T09:54:17.606Z,51.20
2019-02-17T09:56:48.023Z,51.16
2019-02-17T09:59:18.304Z,50.73
2019-02-17T10:01:49.005Z,51.33
2019-02-17T10:04:19.474Z,50.66
2019-02-17T10:06:49.736Z,49.27
2019-02-17T10:09:20.345Z,49.50
2019-02-17T10:11:50.863Z,49.04
2019-02-17T10:14:21.132Z,48.32
2019-02-17T10:16:51.766Z,47.61
2019-02-17T10:19:22.462Z,47.65
2019-02-17T10:21:52.896Z,47.93
2019-02-17T10:24:23.241Z,48.36
2019-02-17T10:26:53.518Z,48.24
2019-02-17T10:29:23.943Z,47.32
2019-02-17T10:31:54.440Z,46.45
2019-02-17T10:34:24.836Z,45.72
2019-02-17T10:36:55.611Z,45.38
2019-02-17T10:39:26.267Z,45.53
2019-02-17T10:41:56.591Z,44.69
2019-02-17T10:44:27.208Z,45.06
2019-02-17T10:46:57.859Z,43.37
2019-02-17T10:49:28.198Z,43.21
2019-02-17T10:51:59.727Z,43.71
2019-02-17T10:54:30.059Z,42.47
2019-02-17T10:57:00.770Z,41.58
2019-02-17T10:59:31.197Z,39.05
2019-02-17T11:02:01.615Z,39.23
2019-02-17T11:04:32.149Z,39.94
2019-02-17T11:07:02.831Z,38.19
2019-02-17T11:09:33.166Z,38.65
2019-02-17T11:12:03.535Z,40.14
2019-02-17T11:14:33.980Z,38.47
2019-02-17T11:17:04.413Z,38.54
2019-02-17T11:19:34.800Z,37.85
2019-02-17T11:22:05.602Z,39.15
2019-02-17T11:24:35.950Z,37.62
2019-02-17T11:27:06.659Z,37.85
2019-02-17T11:29:36.952Z,37.43
2019-02-17T11:32:07.415Z,36.50
2019-02-17T11:34:38.188Z,35.95
2019-02-17T11:37:08.479Z,35.06
2019-02-17T11:39:38.789Z,35.38
2019-02-17T11:42:09.511Z,35.78
2019-02-17T11:44:39.904Z,35.20
2019-02-17T11:47:10.261Z,34.54
2019-02-17T11:49:40.779Z,34.83
2019-02-17T11:52:11.151Z,34.05
2019-02-17T11:54:41.440Z,34.35
2019-02-17T11:57:11.843Z,33.41
2019-02-17T11:59:42.146Z,34.09
2019-02-17T12:02:12.782Z,34.65
2019-02-17T12:04:43.076Z,34.18
2019-02-17T12:07:13.418Z,33.43
2019-02-17T12:09:44.100Z,33.49
2019-02-17T12:12:14.598Z,32.88
2019-02-17T12:14:44.892Z,32.69
2019-02-17T12:17:15.727Z,31.73
2019-02-17T12:19:46.540Z,31.80
2019-02-17T12:22:23.943Z,31.48
2019-02-17T12:25:03.418Z,31.43
2019-02-17T12:27:53.898Z,30.62
2019-02-17T12:30:25.580Z,29.59
2019-02-17T12:32:56.027Z,29.54
2019-02-17T12:35:26.731Z,29.37
2019-02-17T12:37:57.011Z,28.72
2019-02-17T12:40:27.366Z,28.68
2019-02-17T12:42:58.094Z,27.56
2019-02-17T12:45:28.402Z,28.20
2019-02-17T12:47:58.764Z,28.26
2019-02-17T12:50:29.513Z,27.47
2019-02-17T12:53:00.059Z,27.09
2019-02-17T12:55:30.350Z,26.83
2019-02-17T12:58:01.075Z,26.65
2019-02-17T13:00:31.746Z,26.68
2019-02-17T13:03:02.317Z,24.70
2019-02-17T13:05:32.646Z,24.86
2019-02-17T13:08:02.997Z,25.09
2019-02-17T13:10:33.662Z,23.82
2019-02-17T13:13:04.820Z,23.93
2019-02-17T13:15:36.130Z,24.34
2019-02-17T13:18:06.829Z,23.21
2019-02-17T13:20:37.528Z,20.61
2019-02-17T13:23:07.833Z,20.61
2019-02-17T13:25:38.463Z,20.92
2019-02-17T13:28:09.069Z,20.92
2019-02-17T13:30:39.398Z,19.69
2019-02-17T13:33:09.869Z,18.89
2019-02-17T13:35:41.168Z,19.14
2019-02-17T13:38:11.856Z,19.19
2019-02-17T13:40:42.467Z,17.31
2019-02-17T13:43:12.799Z,18.42
2019-02-17T13:45:44.865Z,18.66
2019-02-17T13:48:15.653Z,18.53
2019-02-17T13:50:45.940Z,19.56
2019-02-17T13:53:16.290Z,19.82
2019-02-17T13:55:46.901Z,19.44
2019-02-17T13:58:17.382Z,18.82
2019-02-17T14:00:47.696Z,18.95
2019-02-17T14:03:18.365Z,19.11
2019-02-17T14:05:48.647Z,19.33
2019-02-17T14:08:19.336Z,18.94
2019-02-17T14:10:49.618Z,18.65
2019-02-17T14:13:20.095Z,19.43
2019-02-17T14:15:50.726Z,20.47
2019-02-17T14:18:21.187Z,20.16
2019-02-17T14:20:51.561Z,21.98
2019-02-17T14:23:21.973Z,21.58
2019-02-17T14:25:52.259Z,21.58
2019-02-17T14:28:22.675Z,20.52
2019-02-17T14:30:53.266Z,20.52
2019-02-17T14:33:23.810Z,19.28
2019-02-17T14:35:54.200Z,19.26
2019-02-17T14:38:24.932Z,19.69
2019-02-17T14:40:55.239Z,20.50
2019-02-17T14:43:25.684Z,20.32
2019-02-17T14:45:56.032Z,20.26
2019-02-17T14:48:26.358Z,20.66
2019-02-17T14:50:57.061Z,21.53
2019-02-17T14:53:27.638Z,21.29
2019-02-17T14:55:57.963Z,21.38
2019-02-17T14:58:28.676Z,21.14
2019-02-17T15:00:59.471Z,21.67
2019-02-17T15:03:29.762Z,22.13
2019-02-17T15:06:00.456Z,22.65
2019-02-17T15:08:31.297Z,22.59
2019-02-17T15:11:01.689Z,23.35
2019-02-17T15:13:32.066Z,23.65
2019-02-17T15:16:02.358Z,25.03
2019-02-17T15:18:33.007Z,25.98
2019-02-17T15:21:03.826Z,26.56
2019-02-17T15:23:34.168Z,26.34
2019-02-17T15:26:05.024Z,26.76
2019-02-17T15:28:35.684Z,27.80
2019-02-17T15:31:06.028Z,29.06
2019-02-17T15:33:36.435Z,29.54
2019-02-17T15:36:07.034Z,30.19
2019-02-17T15:38:37.340Z,31.65
2019-02-17T15:41:07.676Z,32.05
2019-02-17T15:43:38.005Z,32.48
2019-02-17T15:46:08.421Z,33.18
2019-02-17T15:48:39.111Z,33.87
2019-02-17T15:51:09.458Z,35.09
2019-02-17T15:53:39.881Z,35.84
2019-02-17T15:56:10.676Z,35.75
2019-02-17T15:58:41.053Z,36.35
2019-02-17T16:01:11.391Z,36.56
2019-02-17T16:03:41.935Z,38.12
2019-02-17T16:06:12.234Z,39.98
2019-02-17T16:08:42.577Z,41.39
2019-02-17T16:11:13.146Z,42.72
2019-02-17T16:13:43.790Z,44.04
2019-02-17T16:16:14.551Z,44.34
2019-02-17T16:18:44.989Z,45.11
2019-02-17T16:21:15.311Z,45.54
2019-02-17T16:23:46.060Z,46.92
2019-02-17T16:26:16.384Z,47.26
2019-02-17T16:28:46.681Z,48.11
2019-02-17T16:31:17.445Z,48.89
2019-02-17T16:33:48.017Z,49.60
2019-02-17T16:36:18.311Z,50.34
2019-02-17T16:38:49.029Z,50.92
2019-02-17T16:41:19.710Z,51.29
2019-02-17T16:43:50.035Z,52.00
2019-02-17T16:46:20.863Z,52.63
2019-02-17T16:48:51.522Z,53.03
2019-02-17T16:51:22.058Z,53.46
2019-02-17T16:53:52.439Z,54.00
2019-02-17T16:56:23.112Z,54.62
2019-02-17T16:58:53.475Z,55.06
2019-02-17T17:01:23.751Z,55.25
2019-02-17T17:03:54.385Z,55.67
2019-02-17T17:06:24.659Z,55.93
2019-02-17T17:08:55.131Z,56.32
2019-02-17T17:11:25.811Z,56.64
2019-02-17T17:13:56.225Z,56.78
2019-02-17T17:16:27.419Z,56.97
2019-02-17T17:18:58.093Z,56.65
2019-02-17T17:21:28.383Z,56.99
2019-02-17T17:23:59.355Z,57.22
2019-02-17T17:26:29.650Z,57.01
2019-02-17T17:28:59.925Z,57.19
2019-02-17T17:31:30.579Z,57.01
2019-02-17T17:34:00.908Z,56.95
2019-02-17T17:36:31.193Z,57.13
2019-02-17T17:39:02.899Z,56.95
2019-02-17T17:41:33.260Z,56.77
2019-02-17T17:44:03.706Z,56.90
2019-02-17T17:46:34.334Z,57.03
2019-02-17T17:49:04.924Z,57.17
2019-02-17T17:51:35.302Z,57.30
2019-02-17T17:54:05.827Z,57.47
2019-02-17T17:56:36.128Z,57.27
2019-02-17T17:59:06.840Z,56.71
2019-02-17T18:01:37.523Z,56.91
2019-02-17T18:04:07.879Z,56.28
2019-02-17T18:06:38.487Z,55.79
2019-02-17T18:09:08.905Z,56.82
2019-02-17T18:11:39.250Z,57.23
2019-02-17T18:14:09.659Z,56.85
2019-02-17T18:16:40.332Z,57.31
2019-02-17T18:19:10.630Z,56.74
2019-02-17T18:21:41.059Z,57.42
2019-02-17T18:24:11.543Z,57.57
2019-02-17T18:26:42.156Z,57.16
2019-02-17T18:29:12.837Z,57.81
2019-02-17T18:31:43.170Z,57.48
2019-02-17T18:34:13.593Z,57.24
2019-02-17T18:36:43.971Z,56.84
2019-02-17T18:39:14.328Z,56.91
2019-02-17T18:41:44.611Z,57.60
2019-02-17T18:44:15.194Z,56.80
2019-02-17T18:46:45.680Z,56.29
2019-02-17T18:49:15.992Z,57.51
2019-02-17T18:51:46.696Z,57.29
2019-02-17T18:54:18.309Z,56.18
2019-02-17T18:56:49.103Z,55.72
2019-02-17T18:59:20.405Z,56.55
2019-02-17T19:01:50.691Z,57.42
2019-02-17T19:04:21.329Z,57.22
2019-02-17T19:06:51.596Z,57.41
2019-02-17T19:09:21.885Z,56.83
2019-02-17T19:11:52.479Z,56.66
2019-02-17T19:14:23.184Z,57.25
2019-02-17T19:16:53.456Z,57.03
2019-02-17T19:19:24.254Z,58.76
2019-02-17T19:21:54.881Z,58.45
2019-02-17T19:24:25.201Z,59.76
2019-02-17T19:26:55.857Z,59.26
2019-02-17T19:29:26.174Z,57.68
2019-02-17T19:31:56.912Z,57.64
2019-02-17T19:34:27.287Z,58.09
2019-02-17T19:36:57.567Z,57.39
2019-02-17T19:39:28.051Z,57.93
2019-02-17T19:45:23.010Z,58.01
2019-02-17T19:47:53.755Z,58.01
2019-02-17T19:50:24.661Z,56.18
2019-02-17T19:52:54.917Z,55.67
2019-02-17T19:55:25.403Z,55.97
2019-02-17T19:57:55.895Z,55.90
2019-02-17T20:00:26.228Z,56.25
2019-02-17T20:03:14.570Z,57.97
2019-02-17T20:05:52.021Z,59.39
2019-02-17T20:08:20.289Z,59.46
2019-02-17T20:10:51.150Z,59.76
2019-02-17T20:16:27.591Z,58.77
2019-02-17T20:18:58.197Z,59.68
2019-02-17T20:21:28.630Z,60.12
2019-02-17T20:23:58.915Z,60.73
2019-02-17T20:26:29.827Z,60.78
2019-02-17T20:29:00.103Z,60.31
2019-02-17T20:31:30.454Z,61.36
2019-02-17T20:34:01.063Z,61.29
2019-02-17T20:36:31.429Z,60.70
2019-02-17T20:39:01.821Z,61.70
2019-02-17T20:41:33.155Z,60.88
2019-02-17T20:44:03.452Z,61.48
2019-02-17T20:46:34.266Z,62.32
2019-02-17T20:49:04.635Z,62.44
2019-02-17T20:51:34.964Z,63.16
2019-02-17T20:54:08.510Z,63.65
2019-02-17T20:56:38.994Z,63.31
2019-02-17T20:59:09.268Z,63.24
2019-02-17T21:01:40.012Z,63.12
2019-02-17T21:04:10.367Z,63.46
2019-02-17T21:06:40.687Z,62.82
2019-02-17T21:09:11.451Z,63.17
2019-02-17T21:11:42.402Z,62.62
2019-02-17T21:14:12.763Z,61.36
2019-02-17T21:16:43.658Z,61.43
2019-02-17T21:19:14.395Z,60.67
2019-02-17T21:21:44.893Z,60.20
2019-02-17T21:24:15.250Z,59.83
2019-02-17T21:26:45.945Z,59.22
2019-02-17T21:29:16.229Z,58.22
2019-02-17T21:31:46.663Z,58.22
2019-02-17T21:34:17.265Z,59.00
2019-02-17T21:36:47.737Z,59.45
2019-02-17T21:39:18.434Z,60.36
2019-02-17T21:41:48.811Z,60.99
2019-02-17T21:44:19.131Z,61.35
2019-02-17T21:46:49.910Z,61.77
2019-02-17T21:49:20.202Z,62.00
2019-02-17T21:51:50.570Z,62.21
2019-02-17T21:54:21.255Z,62.44
2019-02-17T21:56:51.718Z,62.67
2019-02-17T21:59:23.067Z,62.88
2019-02-17T22:01:53.925Z,62.92
2019-02-17T22:04:24.279Z,62.68
2019-02-17T22:06:54.603Z,61.46
2019-02-17T22:09:25.307Z,61.87
2019-02-17T22:11:55.758Z,61.90
2019-02-17T22:14:26.377Z,62.07
2019-02-17T22:16:56.872Z,62.27
2019-02-17T22:19:27.168Z,62.46
2019-02-17T22:21:57.823Z,63.08
2019-02-17T22:24:28.624Z,63.49
2019-02-17T22:26:58.968Z,63.02
2019-02-17T22:29:29.551Z,61.31
2019-02-17T22:32:00.398Z,62.24
2019-02-17T22:34:31.275Z,63.56
2019-02-17T22:37:01.785Z,64.07
2019-02-17T22:39:32.272Z,64.34
2019-02-17T22:42:02.598Z,64.51
2019-02-17T22:44:32.964Z,64.60
2019-02-17T22:47:03.337Z,64.59
2019-02-17T22:49:33.679Z,64.81
2019-02-17T22:52:04.345Z,64.76
2019-02-17T22:54:34.718Z,64.83
2019-02-17T22:57:05.208Z,65.09
2019-02-17T22:59:35.603Z,65.24
2019-02-17T23:02:06.881Z,64.99
2019-02-17T23:04:37.163Z,65.25
2019-02-17T23:07:07.831Z,65.49
2019-02-17T23:09:38.114Z,65.67
2019-02-17T23:12:08.431Z,65.95
2019-02-17T23:14:39.057Z,66.06
2019-02-17T23:17:09.586Z,66.34
2019-02-17T23:19:40.247Z,65.90
2019-02-17T23:22:10.670Z,66.07
2019-02-17T23:24:40.969Z,65.85
2019-02-17T23:27:11.759Z,65.68
2019-02-17T23:29:42.122Z,65.69
2019-02-17T23:32:12.446Z,65.82
2019-02-17T23:34:43.124Z,66.25
2019-02-17T23:37:13.673Z,66.34
2019-02-17T23:39:43.938Z,66.36
2019-02-17T23:42:14.733Z,66.19
2019-02-17T23:44:45.240Z,66.04
2019-02-17T23:47:16.701Z,65.99
2019-02-17T23:49:46.974Z,65.40
2019-02-17T23:52:17.311Z,65.04
2019-02-17T23:54:47.969Z,64.88
2019-02-17T23:57:18.686Z,65.02
2019-02-17T23:59:48.966Z,65.75
